Time,TemperatureF,DewpointF,PressureIn,WindDirection,WindDirectionDegrees,WindSpeedMPH,WindSpeedGustMPH,Humidity,HourlyPrecipIn,Conditions,Clouds,dailyrainin,SoftwareType,DateUTC
2013-06-09 02:22:00,72.0,71.0,30.07,NNE,16,0.0,-999.0,98,-99.99,,,-99.99,,2013-06-09 06:22:00,
2013-06-09 02:32:00,72.0,71.0,30.07,NNE,16,0.0,-999.0,98,-99.99,,,-99.99,,2013-06-09 06:32:00,
2013-06-09 02:42:00,72.0,71.0,30.07,NNE,16,0.0,-999.0,98,-99.99,,,-99.99,,2013-06-09 06:42:00,
2013-06-09 02:52:00,71.0,71.0,30.07,NNE,16,0.0,-999.0,99,-99.99,,,-99.99,,2013-06-09 06:52:00,
2013-06-09 03:02:00,71.0,71.0,30.07,NNE,16,0.0,-999.0,99,-99.99,,,-99.99,,2013-06-09 07:02:00,
2013-06-09 03:12:00,71.0,71.0,30.07,NNE,16,0.0,-999.0,99,-99.99,,,-99.99,,2013-06-09 07:12:00,
2013-06-09 03:22:00,71.0,71.0,30.06,NNE,16,0.0,-999.0,99,-99.99,,,-99.99,,2013-06-09 07:22:00,
2013-06-09 03:32:00,71.0,71.0,30.06,NNE,16,0.0,-999.0,99,-99.99,,,-99.99,,2013-06-09 07:32:00,
2013-06-09 03:42:00,71.0,71.0,30.06,NNE,16,0.0,-999.0,99,-99.99,,,-99.99,,2013-06-09 07:42:00,
2013-06-09 03:52:00,71.0,71.0,30.06,NNE,16,0.0,-999.0,99,-99.99,,,-99.99,,2013-06-09 07:52:00,
2013-06-09 04:02:00,71.0,71.0,30.06,NNE,16,0.0,-999.0,99,-99.99,,,-99.99,,2013-06-09 08:02:00,
2013-06-09 04:12:00,71.0,71.0,30.06,NNE,16,0.0,-999.0,99,-99.99,,,-99.99,,2013-06-09 08:12:00,
2013-06-09 04:22:00,71.0,71.0,30.05,NNE,16,0.0,-999.0,99,-99.99,,,-99.99,,2013-06-09 08:22:00,
2013-06-09 04:32:00,71.0,71.0,30.05,NNE,16,0.0,-999.0,99,-99.99,,,-99.99,,2013-06-09 08:32:00,
2013-06-09 04:42:00,71.0,71.0,30.05,NNE,16,0.0,-999.0,99,-99.99,,,-99.99,,2013-06-09 08:42:00,
2013-06-09 04:53:00,71.0,71.0,30.05,NNE,16,0.0,-999.0,99,-99.99,,,-99.99,,2013-06-09 08:53:00,
2013-06-09 05:02:00,71.0,71.0,30.05,NNE,16,0.0,-999.0,99,-99.99,,,-99.99,,2013-06-09 09:02:00,
2013-06-09 05:12:00,71.0,71.0,30.05,NNE,16,0.0,-999.0,99,-99.99,,,-99.99,,2013-06-09 09:12:00,
2013-06-09 05:22:00,71.0,71.0,30.05,NNE,16,0.0,-999.0,99,-99.99,,,-99.99,,2013-06-09 09:22:00,
2013-06-09 05:33:00,71.0,71.0,30.05,NNE,16,0.0,-999.0,99,-99.99,,,-99.99,,2013-06-09 09:33:00,
2013-06-09 05:43:00,71.0,71.0,30.05,NNE,16,0.0,-999.0,99,-99.99,,,-99.99,,2013-06-09 09:43:00,
2013-06-09 05:52:00,71.0,71.0,30.06,NNE,16,0.0,-999.0,99,-99.99,,,-99.99,,2013-06-09 09:52:00,
2013-06-09 06:00:00,71.0,71.0,30.06,NNE,16,0.0,-999.0,99,-99.99,,,-99.99,,2013-06-09 10:00:00,
2013-06-09 06:03:00,71.0,71.0,30.06,NNE,16,0.0,-999.0,99,-99.99,,,-99.99,,2013-06-09 10:03:00,
2013-06-09 06:13:00,71.0,71.0,30.06,NNE,16,0.0,-999.0,99,-99.99,,,-99.99,,2013-06-09 10:13:00,
2013-06-09 06:23:00,71.0,71.0,30.06,NNE,16,0.0,-999.0,99,-99.99,,,-99.99,,2013-06-09 10:23:00,
2013-06-09 06:32:00,71.0,71.0,30.06,NNE,16,0.0,-999.0,99,-99.99,,,-99.99,,2013-06-09 10:32:00,
2013-06-09 06:43:00,71.0,71.0,30.06,NNE,16,0.0,-999.0,99,-99.99,,,-99.99,,2013-06-09 10:43:00,
2013-06-09 06:52:00,71.0,71.0,30.06,NNE,16,0.0,-999.0,99,-99.99,,,-99.99,,2013-06-09 10:52:00,
2013-06-09 12:23:00,86.0,75.0,30.08,SE,130,1.0,-999.0,70,-99.99,,,-99.99,,2013-06-09 16:23:00,
2013-06-09 12:33:00,86.0,75.0,30.08,SE,130,1.0,-999.0,70,-99.99,,,-99.99,,2013-06-09 16:33:00,
2013-06-09 12:43:00,86.0,75.0,30.08,SE,130,1.0,-999.0,70,-99.99,,,-99.99,,2013-06-09 16:43:00,
2013-06-09 12:53:00,86.0,76.0,30.08,WSW,243,0.0,-999.0,73,-99.99,,,-99.99,,2013-06-09 16:53:00,
2013-06-09 13:03:00,86.0,76.0,30.08,WSW,243,0.0,-999.0,73,-99.99,,,-99.99,,2013-06-09 17:03:00,
2013-06-09 13:12:00,86.0,76.0,30.08,WSW,243,0.0,-999.0,73,-99.99,,,-99.99,,2013-06-09 17:12:00,
2013-06-09 13:22:00,87.0,75.0,30.08,South,179,1.0,-999.0,67,-99.99,,,-99.99,,2013-06-09 17:22:00,
2013-06-09 13:32:00,87.0,75.0,30.08,South,179,1.0,-999.0,67,-99.99,,,-99.99,,2013-06-09 17:32:00,
2013-06-09 13:42:00,87.0,75.0,30.08,South,179,1.0,-999.0,67,-99.99,,,-99.99,,2013-06-09 17:42:00,
2013-06-09 13:52:00,87.0,74.0,30.07,ESE,104,1.0,-999.0,66,-99.99,,,-99.99,,2013-06-09 17:52:00,
2013-06-09 14:02:00,87.0,74.0,30.07,ESE,104,1.0,-999.0,66,-99.99,,,-99.99,,2013-06-09 18:02:00,
2013-06-09 14:12:00,87.0,74.0,30.07,ESE,104,1.0,-999.0,66,-99.99,,,-99.99,,2013-06-09 18:12:00,
2013-06-09 14:22:00,88.0,74.0,30.06,SE,131,1.0,-999.0,63,-99.99,,,-99.99,,2013-06-09 18:22:00,
2013-06-09 14:32:00,88.0,74.0,30.06,SE,131,1.0,-999.0,63,-99.99,,,-99.99,,2013-06-09 18:32:00,
2013-06-09 14:42:00,88.0,74.0,30.06,SE,131,1.0,-999.0,63,-99.99,,,-99.99,,2013-06-09 18:42:00,
2013-06-09 14:52:00,88.0,73.0,30.04,SE,130,1.0,-999.0,62,-99.99,,,-99.99,,2013-06-09 18:52:00,
2013-06-09 15:02:00,88.0,73.0,30.04,SE,130,1.0,-999.0,62,-99.99,,,-99.99,,2013-06-09 19:02:00,
2013-06-09 15:12:00,88.0,73.0,30.04,SE,130,1.0,-999.0,62,-99.99,,,-99.99,,2013-06-09 19:12:00,
2013-06-09 15:22:00,88.0,75.0,30.04,ESE,117,2.0,-999.0,65,-99.99,,,-99.99,,2013-06-09 19:22:00,
2013-06-09 15:31:00,84.0,76.0,30.03,SE,138,2.0,-999.0,76,-99.99,,,-99.99,,2013-06-09 19:31:00,
2013-06-09 15:32:00,88.0,75.0,30.04,ESE,117,2.0,-999.0,65,-99.99,,,-99.99,,2013-06-09 19:32:00,
2013-06-09 15:43:00,88.0,75.0,30.04,ESE,117,2.0,-999.0,65,-99.99,,,-99.99,,2013-06-09 19:43:00,
2013-06-09 15:52:00,84.0,76.0,30.03,SE,138,2.0,-999.0,76,-99.99,,,-99.99,,2013-06-09 19:52:00,
2013-06-09 16:02:00,84.0,76.0,30.03,SE,138,2.0,-999.0,76,-99.99,,,-99.99,,2013-06-09 20:02:00,
2013-06-09 16:12:00,84.0,76.0,30.03,SE,138,2.0,-999.0,76,-99.99,,,-99.99,,2013-06-09 20:12:00,
2013-06-09 16:22:00,84.0,76.0,30.03,SE,138,2.0,-999.0,76,-99.99,,,-99.99,,2013-06-09 20:22:00,